Terminal Aerodrome Forecast
Issued by NWS Sioux Falls, SD

Home | Current Version | Previous Version | Graphics & Text | Print | Product List | Glossary Off
Versions: 1 2 3 4 5 6 7 8 9 10 11 12 13 14

000
FTUS43 KFSD 271720
TAFHON
TAF
KHON 271720Z 2718/2818 15017G23KT P6SM SCT030
     FM280000 16014G22KT P6SM SCT040 BKN250
     FM280400 16014G22KT P6SM BKN100
      TEMPO 2804/2807 4SM TSRA OVC035CB
     FM281000 17008KT P6SM BKN120
     FM281300 29014G21KT P6SM SCT022=

USA.gov is the U.S. government's official web portal to all federal, state and local government web resources and services.